Time;durP1;ratioP1;P1;durP2;ratioP2;P2;SDS_P1;SDS_P2;PMS_P1;PMS_P2;Temp;Humidity;BMP_temperature;BMP_pressure;BME280_temperature;BME280_humidity;BME280_pressure;Samples;Min_cycle;Max_cycle;Signal;HPM_P1;HPM_P2
2023/05/30 00:00:50;;;;;;;0.10;0.10;;;8.90;99.90;;;;;;5032752;28;20033;-75
2023/05/30 00:03:15;;;;;;;0.17;0.17;;;9.00;99.90;;;;;;5032293;28;20022;-75
2023/05/30 00:05:41;;;;;;;0.20;0.20;;;9.20;99.90;;;;;;5033790;28;20520;-75
2023/05/30 00:08:07;;;;;;;0.20;0.20;;;9.20;99.90;;;;;;5033762;28;20387;-75
2023/05/30 00:10:32;;;;;;;0.20;0.20;;;9.30;99.90;;;;;;5033746;28;20112;-74
2023/05/30 00:12:58;;;;;;;0.20;0.20;;;9.40;99.90;;;;;;5033377;28;20071;-74
2023/05/30 00:15:25;;;;;;;0.22;0.22;;;9.40;99.90;;;;;;5033645;28;20025;-75
2023/05/30 00:17:52;;;;;;;0.20;0.20;;;9.50;99.90;;;;;;5032350;28;20022;-74
2023/05/30 00:20:18;;;;;;;0.20;0.20;;;9.50;99.90;;;;;;5032350;28;20033;-75
2023/05/30 00:22:44;;;;;;;0.20;0.20;;;9.60;99.90;;;;;;5033454;28;20025;-75
2023/05/30 00:25:10;;;;;;;0.20;0.20;;;9.60;99.90;;;;;;5033666;28;20368;-75
2023/05/30 00:27:36;;;;;;;0.22;0.22;;;9.70;99.90;;;;;;5033297;28;20100;-75
2023/05/30 00:30:02;;;;;;;0.15;0.15;;;9.70;99.90;;;;;;5033157;28;20080;-75
2023/05/30 00:32:28;;;;;;;0.20;0.20;;;9.70;99.90;;;;;;5032017;28;20057;-75
2023/05/30 00:34:53;;;;;;;0.20;0.20;;;9.80;99.90;;;;;;5033088;28;20087;-75
2023/05/30 00:37:19;;;;;;;0.20;0.20;;;9.80;99.90;;;;;;5033135;28;20026;-75
2023/05/30 00:39:44;;;;;;;0.20;0.20;;;9.80;99.90;;;;;;5032044;28;20022;-75
2023/05/30 00:42:10;;;;;;;0.15;0.15;;;9.80;99.90;;;;;;5031736;28;20452;-75
2023/05/30 00:44:36;;;;;;;0.20;0.20;;;9.80;99.90;;;;;;5033097;28;20037;-75
2023/05/30 00:47:02;;;;;;;0.20;0.20;;;10.00;99.90;;;;;;5033229;28;20169;-75
2023/05/30 00:49:27;;;;;;;0.20;0.20;;;10.00;99.90;;;;;;5031632;28;20026;-75
2023/05/30 00:51:53;;;;;;;0.20;0.20;;;10.00;99.90;;;;;;5031782;28;20406;-75
2023/05/30 00:54:19;;;;;;;0.20;0.20;;;10.00;99.90;;;;;;5032641;28;20478;-74
2023/05/30 00:56:46;;;;;;;0.20;0.20;;;10.10;99.90;;;;;;5033104;28;20022;-75
2023/05/30 00:59:11;;;;;;;0.20;0.20;;;10.10;99.90;;;;;;5032909;28;20021;-75
2023/05/30 01:01:37;;;;;;;0.20;0.20;;;10.10;99.90;;;;;;5032837;28;20028;-75
2023/05/30 01:04:03;;;;;;;0.20;0.20;;;10.20;99.90;;;;;;5032702;28;20030;-75
2023/05/30 01:06:30;;;;;;;0.28;0.28;;;10.20;99.90;;;;;;5033174;28;20061;-75
2023/05/30 01:08:58;;;;;;;0.10;0.10;;;10.20;99.90;;;;;;5032705;28;20087;-76
2023/05/30 01:11:27;;;;;;;0.10;0.10;;;10.20;99.90;;;;;;5032785;28;20018;-75
2023/05/30 01:14:11;;;;;;;0.30;0.30;;;10.20;99.90;;;;;;5032835;28;20104;-75
2023/05/30 01:16:42;;;;;;;;;;;10.20;99.90;;;;;;5032864;28;20017;-75
2023/05/30 01:19:21;;;;;;;0.10;0.10;;;10.30;99.90;;;;;;5032924;28;20409;-75
2023/05/30 01:21:48;;;;;;;0.30;0.30;;;10.30;99.90;;;;;;5032642;28;20075;-74
2023/05/30 01:24:30;;;;;;;0.20;0.20;;;10.40;99.90;;;;;;5032668;28;20017;-75
2023/05/30 01:27:15;;;;;;;0.10;0.10;;;10.30;99.90;;;;;;5032625;28;20430;-75
2023/05/30 01:29:42;;;;;;;0.20;0.20;;;10.40;99.90;;;;;;5032638;28;20029;-75
2023/05/30 01:32:08;;;;;;;0.10;0.10;;;10.40;99.90;;;;;;5032780;28;20391;-75
2023/05/30 01:34:34;;;;;;;0.20;0.20;;;10.50;99.90;;;;;;5032418;28;20037;-75
2023/05/30 01:37:00;;;;;;;0.10;0.10;;;10.50;99.90;;;;;;5032535;28;20022;-75
2023/05/30 01:39:25;;;;;;;0.10;0.10;;;10.50;99.90;;;;;;5032702;28;20030;-75
2023/05/30 01:42:08;;;;;;;0.20;0.20;;;10.60;99.90;;;;;;5032730;28;20503;-75
2023/05/30 01:44:38;;;;;;;0.10;0.10;;;10.60;99.90;;;;;;5032549;28;20034;-74
2023/05/30 01:47:25;;;;;;;0.20;0.20;;;10.60;99.90;;;;;;5031517;28;20030;-75
2023/05/30 01:50:01;;;;;;;0.22;0.22;;;10.70;99.90;;;;;;5032524;28;20043;-75
2023/05/30 01:52:31;;;;;;;0.20;0.20;;;10.70;99.90;;;;;;5032546;28;20105;-75
2023/05/30 01:55:02;;;;;;;0.10;0.10;;;10.70;99.90;;;;;;5032255;28;20483;-75
2023/05/30 01:57:29;;;;;;;0.30;0.30;;;10.70;99.90;;;;;;5013166;28;20045;-75
2023/05/30 01:59:57;;;;;;;0.20;0.20;;;10.70;99.90;;;;;;5011227;28;20033;-75
2023/05/30 02:02:23;;;;;;;0.10;0.10;;;10.80;99.90;;;;;;5012887;28;20033;-75
2023/05/30 02:04:49;;;;;;;0.20;0.20;;;10.80;99.90;;;;;;5014053;28;20476;-75
2023/05/30 02:07:15;;;;;;;0.20;0.20;;;10.80;99.90;;;;;;5032418;28;20025;-75
2023/05/30 02:09:41;;;;;;;0.20;0.20;;;10.80;99.90;;;;;;5032164;28;20424;-75
2023/05/30 02:12:07;;;;;;;0.20;0.20;;;10.80;99.90;;;;;;5032269;28;20068;-75
2023/05/30 02:14:33;;;;;;;0.20;0.20;;;10.80;99.90;;;;;;5034155;28;20030;-75
2023/05/30 02:17:02;;;;;;;0.22;0.22;;;10.80;99.90;;;;;;5035746;28;20048;-75
2023/05/30 02:19:28;;;;;;;0.28;0.28;;;10.80;99.90;;;;;;5034583;28;20021;-75
2023/05/30 02:21:54;;;;;;;0.22;0.22;;;10.80;99.90;;;;;;5035762;28;20088;-75
2023/05/30 02:24:21;;;;;;;0.20;0.20;;;10.80;99.90;;;;;;5036093;28;20017;-75
2023/05/30 02:26:47;;;;;;;0.20;0.20;;;10.80;99.90;;;;;;5035709;28;20029;-75
2023/05/30 02:29:12;;;;;;;0.20;0.20;;;10.70;99.90;;;;;;5035503;28;20100;-75
2023/05/30 02:31:38;;;;;;;0.20;0.20;;;10.70;99.90;;;;;;5035683;28;20107;-75
2023/05/30 02:34:04;;;;;;;0.20;0.20;;;10.80;99.90;;;;;;5034027;28;20029;-74
2023/05/30 02:36:30;;;;;;;0.20;0.20;;;10.80;99.90;;;;;;5035491;28;20084;-75
2023/05/30 02:38:55;;;;;;;0.20;0.20;;;10.80;99.90;;;;;;5035538;28;20368;-74
2023/05/30 02:41:22;;;;;;;0.30;0.30;;;10.80;99.90;;;;;;5035445;28;20072;-75
2023/05/30 02:43:48;;;;;;;0.20;0.20;;;10.80;99.90;;;;;;5035394;28;20068;-74
2023/05/30 02:46:13;;;;;;;0.20;0.20;;;10.80;99.90;;;;;;5035293;28;20033;-75
2023/05/30 02:48:39;;;;;;;0.20;0.20;;;10.80;99.90;;;;;;5035324;28;20057;-74
2023/05/30 02:51:04;;;;;;;0.20;0.20;;;10.80;99.90;;;;;;5035097;28;20024;-74
2023/05/30 02:53:30;;;;;;;0.20;0.20;;;10.80;99.90;;;;;;5034040;28;20022;-74
2023/05/30 02:55:56;;;;;;;0.20;0.20;;;10.90;99.90;;;;;;5035326;28;20432;-74
2023/05/30 02:58:22;;;;;;;0.20;0.20;;;10.90;99.90;;;;;;5034808;28;20558;-74
2023/05/30 03:00:49;;;;;;;0.20;0.20;;;10.80;99.90;;;;;;5034961;28;20056;-74
2023/05/30 03:03:14;;;;;;;0.20;0.20;;;10.80;99.90;;;;;;5035293;28;20388;-74
2023/05/30 03:05:41;;;;;;;0.20;0.20;;;10.80;99.90;;;;;;5034828;28;20070;-74
2023/05/30 03:08:07;;;;;;;0.20;0.20;;;10.90;99.90;;;;;;5035031;28;20048;-74
2023/05/30 03:10:32;;;;;;;0.17;0.17;;;10.80;99.90;;;;;;5034734;28;20479;-74
2023/05/30 03:12:58;;;;;;;0.25;0.25;;;10.80;99.90;;;;;;5034630;28;20037;-75
2023/05/30 03:15:24;;;;;;;0.20;0.20;;;10.80;99.90;;;;;;5034919;28;20025;-74
2023/05/30 03:17:49;;;;;;;0.20;0.20;;;10.90;99.90;;;;;;5034819;28;20013;-74
2023/05/30 03:20:16;;;;;;;0.20;0.20;;;10.90;99.90;;;;;;5034891;28;20028;-74
2023/05/30 03:22:41;;;;;;;0.20;0.20;;;10.80;99.90;;;;;;5034607;28;20029;-74
2023/05/30 03:25:08;;;;;;;0.17;0.17;;;10.90;99.90;;;;;;5034246;28;20044;-74
2023/05/30 03:27:34;;;;;;;0.20;0.20;;;10.90;99.90;;;;;;5034129;28;20021;-74
2023/05/30 03:30:02;;;;;;;0.20;0.20;;;10.80;99.90;;;;;;5034503;28;20021;-75
2023/05/30 03:32:28;;;;;;;0.13;0.13;;;10.80;99.90;;;;;;5034722;28;20068;-74
2023/05/30 03:34:54;;;;;;;0.20;0.20;;;10.80;99.90;;;;;;5034235;28;20057;-74
2023/05/30 03:37:20;;;;;;;0.30;0.30;;;10.80;99.90;;;;;;5034488;28;20017;-74
2023/05/30 03:39:45;;;;;;;0.20;0.20;;;10.80;99.90;;;;;;5034382;28;20075;-74
2023/05/30 03:42:11;;;;;;;0.20;0.20;;;10.90;99.90;;;;;;5034281;28;20022;-74
2023/05/30 03:44:36;;;;;;;0.20;0.20;;;10.80;99.90;;;;;;5034396;28;20486;-74
2023/05/30 03:47:02;;;;;;;0.10;0.10;;;10.90;99.90;;;;;;5034321;28;20120;-74
2023/05/30 03:49:27;;;;;;;0.20;0.20;;;10.90;99.90;;;;;;5034542;28;20022;-74
2023/05/30 03:51:53;;;;;;;0.20;0.20;;;10.90;99.90;;;;;;5034657;28;20048;-74
2023/05/30 03:54:18;;;;;;;0.10;0.10;;;10.90;99.90;;;;;;5032755;28;20062;-74
2023/05/30 03:56:44;;;;;;;0.20;0.20;;;10.90;99.90;;;;;;5034337;28;20041;-75
2023/05/30 03:59:09;;;;;;;0.20;0.20;;;11.00;99.90;;;;;;5033921;28;20032;-74
2023/05/30 04:01:35;;;;;;;0.20;0.20;;;10.90;99.90;;;;;;5033818;28;20029;-75
2023/05/30 04:04:00;;;;;;;0.15;0.15;;;10.90;99.90;;;;;;5034109;28;20083;-75
2023/05/30 04:06:26;;;;;;;0.20;0.20;;;10.90;99.90;;;;;;5033828;28;20033;-75
2023/05/30 04:08:52;;;;;;;0.20;0.20;;;11.00;99.90;;;;;;5033913;28;20017;-75
2023/05/30 04:11:17;;;;;;;0.20;0.20;;;11.00;99.90;;;;;;5026735;28;20461;-75
2023/05/30 04:13:43;;;;;;;0.20;0.20;;;11.00;99.90;;;;;;5016250;28;20480;-75
2023/05/30 04:16:08;;;;;;;0.10;0.10;;;11.00;99.90;;;;;;5016457;28;20041;-75
2023/05/30 04:18:36;;;;;;;0.20;0.20;;;11.00;99.90;;;;;;5019696;28;20117;-74
2023/05/30 04:21:02;;;;;;;0.20;0.20;;;10.90;99.90;;;;;;5012428;28;20096;-74
2023/05/30 04:23:27;;;;;;;0.20;0.20;;;10.90;99.90;;;;;;5027886;28;20036;-74
2023/05/30 04:25:53;;;;;;;0.20;0.20;;;10.90;99.90;;;;;;5033490;28;20029;-74
2023/05/30 04:28:21;;;;;;;0.22;0.22;;;10.90;99.90;;;;;;5033649;28;20036;-74
2023/05/30 04:30:48;;;;;;;0.13;0.13;;;11.00;99.90;;;;;;5033616;28;20379;-75
2023/05/30 04:33:15;;;;;;;0.10;0.10;;;11.00;99.90;;;;;;5033446;28;20387;-75
2023/05/30 04:35:43;;;;;;;0.10;0.10;;;11.10;99.90;;;;;;5033110;28;20483;-75
2023/05/30 04:38:09;;;;;;;0.20;0.20;;;11.00;99.90;;;;;;5031983;28;20030;-74
2023/05/30 04:40:36;;;;;;;0.20;0.20;;;11.10;99.90;;;;;;5033275;28;20021;-74
2023/05/30 04:43:02;;;;;;;0.20;0.20;;;11.10;99.90;;;;;;5033672;28;20513;-74
2023/05/30 04:45:29;;;;;;;0.20;0.20;;;11.10;99.90;;;;;;5032924;28;20108;-74
2023/05/30 04:47:55;;;;;;;0.25;0.25;;;11.10;99.90;;;;;;5033224;28;20109;-75
2023/05/30 04:50:24;;;;;;;0.20;0.20;;;11.10;99.90;;;;;;5033167;28;20041;-74
2023/05/30 04:52:49;;;;;;;0.20;0.20;;;11.10;99.90;;;;;;5032919;28;20032;-75
2023/05/30 04:55:17;;;;;;;0.20;0.20;;;11.10;99.90;;;;;;5032879;28;20021;-74
2023/05/30 04:57:42;;;;;;;0.10;0.10;;;11.20;99.90;;;;;;5033095;28;20029;-74
2023/05/30 05:00:13;;;;;;;0.13;0.13;;;11.20;99.90;;;;;;5032869;28;20025;-74
2023/05/30 05:02:40;;;;;;;0.20;0.20;;;11.20;99.90;;;;;;5031896;28;20108;-74
2023/05/30 05:05:06;;;;;;;0.20;0.20;;;11.10;99.90;;;;;;5032679;28;20483;-74
2023/05/30 05:07:32;;;;;;;0.20;0.20;;;11.20;99.90;;;;;;5033057;28;20039;-74
2023/05/30 05:09:57;;;;;;;0.20;0.20;;;11.20;99.90;;;;;;5032714;28;20071;-75
2023/05/30 05:12:23;;;;;;;0.13;0.13;;;11.30;99.90;;;;;;5032811;28;20083;-74
2023/05/30 05:14:50;;;;;;;0.10;0.10;;;11.20;99.90;;;;;;5032757;28;20048;-75
2023/05/30 05:17:15;;;;;;;0.10;0.10;;;11.20;99.90;;;;;;5032847;28;20030;-74
2023/05/30 05:19:41;;;;;;;0.15;0.15;;;11.20;99.90;;;;;;5032823;28;20029;-74
2023/05/30 05:22:06;;;;;;;0.20;0.20;;;11.20;99.90;;;;;;5032984;28;20104;-74
2023/05/30 05:24:32;;;;;;;0.20;0.20;;;11.20;99.90;;;;;;5032525;28;20021;-75
2023/05/30 05:26:58;;;;;;;0.13;0.13;;;11.20;99.90;;;;;;5032744;28;20044;-74
2023/05/30 05:29:24;;;;;;;0.10;0.10;;;11.20;99.90;;;;;;5032633;28;20025;-75
2023/05/30 05:31:50;;;;;;;0.20;0.20;;;11.20;99.90;;;;;;5031235;28;20108;-75
2023/05/30 05:34:16;;;;;;;0.20;0.20;;;11.20;99.90;;;;;;5032735;28;20109;-74
2023/05/30 05:36:42;;;;;;;0.13;0.13;;;11.20;99.90;;;;;;5032675;28;20036;-74
2023/05/30 05:39:08;;;;;;;0.20;0.20;;;11.30;99.90;;;;;;5032595;28;20509;-75
2023/05/30 05:41:34;;;;;;;0.10;0.10;;;11.20;99.90;;;;;;5032543;28;20491;-75
2023/05/30 05:44:00;;;;;;;0.20;0.20;;;11.20;99.90;;;;;;5032670;28;20076;-74
2023/05/30 05:46:26;;;;;;;0.20;0.20;;;11.20;99.90;;;;;;5032383;28;20521;-75
2023/05/30 05:48:54;;;;;;;0.10;0.10;;;11.20;99.90;;;;;;5033727;28;20100;-75
2023/05/30 05:51:20;;;;;;;0.10;0.10;;;11.20;99.90;;;;;;5036249;28;20029;-75
2023/05/30 05:53:45;;;;;;;0.17;0.17;;;11.20;99.90;;;;;;5036102;28;20026;-75
2023/05/30 05:56:11;;;;;;;0.10;0.10;;;11.30;99.90;;;;;;5036347;28;20065;-74
2023/05/30 05:58:36;;;;;;;0.20;0.20;;;11.30;99.90;;;;;;5036081;28;20082;-74
2023/05/30 06:01:02;;;;;;;0.10;0.10;;;11.30;99.90;;;;;;5036038;28;20100;-75
2023/05/30 06:03:28;;;;;;;0.20;0.20;;;11.30;99.90;;;;;;5036286;28;20545;-74
2023/05/30 06:05:53;;;;;;;0.20;0.20;;;11.40;99.90;;;;;;5035896;28;20029;-74
2023/05/30 06:08:19;;;;;;;0.10;0.10;;;11.50;99.90;;;;;;5036309;28;20131;-74
2023/05/30 06:10:44;;;;;;;0.15;0.15;;;11.70;99.90;;;;;;5035934;28;20025;-74
2023/05/30 06:13:10;;;;;;;0.20;0.20;;;11.70;99.90;;;;;;5036026;28;20030;-74
2023/05/30 06:15:36;;;;;;;0.20;0.20;;;11.80;99.90;;;;;;5036067;28;20021;-75
2023/05/30 06:18:01;;;;;;;0.17;0.17;;;11.90;99.90;;;;;;5034556;28;20022;-75
2023/05/30 06:20:27;;;;;;;0.20;0.20;;;11.90;99.90;;;;;;5035693;28;20037;-74
2023/05/30 06:22:52;;;;;;;0.10;0.10;;;11.90;99.90;;;;;;5035625;28;20021;-75
2023/05/30 06:25:18;;;;;;;0.20;0.20;;;11.90;99.90;;;;;;5036547;28;20056;-75
2023/05/30 06:27:43;;;;;;;0.13;0.13;;;12.10;99.90;;;;;;5035651;28;20029;-74
2023/05/30 06:30:09;;;;;;;0.10;0.10;;;12.10;99.90;;;;;;5035648;28;20104;-75
2023/05/30 06:32:35;;;;;;;0.10;0.10;;;12.20;99.90;;;;;;5035639;28;20022;-75
2023/05/30 06:35:00;;;;;;;0.13;0.13;;;12.40;99.90;;;;;;5035398;28;20033;-75
2023/05/30 06:37:26;;;;;;;0.20;0.20;;;12.50;99.90;;;;;;5035509;28;20022;-75
2023/05/30 06:39:51;;;;;;;0.10;0.10;;;12.50;99.90;;;;;;5036642;28;20108;-76
2023/05/30 06:42:17;;;;;;;0.15;0.15;;;12.50;99.90;;;;;;5038795;28;20081;-77
2023/05/30 06:44:42;;;;;;;0.10;0.10;;;12.50;99.90;;;;;;5035691;28;20025;-75
2023/05/30 06:47:08;;;;;;;0.20;0.20;;;12.50;99.90;;;;;;5035322;28;20053;-75
2023/05/30 06:49:34;;;;;;;0.20;0.20;;;12.40;99.90;;;;;;5035342;28;20026;-75
2023/05/30 06:51:59;;;;;;;0.10;0.10;;;12.40;99.90;;;;;;5035328;28;20049;-75
2023/05/30 06:54:25;;;;;;;0.10;0.10;;;12.30;99.90;;;;;;5033844;28;20504;-76
2023/05/30 06:56:50;;;;;;;0.20;0.20;;;12.30;99.90;;;;;;5035561;28;20026;-75
2023/05/30 06:59:16;;;;;;;0.10;0.10;;;12.30;99.90;;;;;;5035101;28;20025;-75
2023/05/30 07:01:42;;;;;;;0.20;0.20;;;12.30;99.90;;;;;;5035063;28;20025;-75
2023/05/30 07:04:07;;;;;;;0.20;0.20;;;12.30;99.90;;;;;;5033640;28;20420;-75
2023/05/30 07:06:33;;;;;;;0.20;0.20;;;12.40;99.90;;;;;;5033762;28;20072;-75
2023/05/30 07:08:58;;;;;;;0.20;0.20;;;12.40;99.90;;;;;;5035029;28;20017;-75
2023/05/30 07:11:24;;;;;;;0.20;0.20;;;12.40;99.90;;;;;;5034829;28;20037;-76
2023/05/30 07:13:50;;;;;;;0.20;0.20;;;12.70;99.90;;;;;;5033614;28;20299;-75
2023/05/30 07:16:15;;;;;;;0.20;0.20;;;12.90;99.90;;;;;;5033471;28;20022;-75
2023/05/30 07:18:41;;;;;;;0.10;0.10;;;12.90;99.90;;;;;;5034822;28;20029;-75
2023/05/30 07:21:07;;;;;;;0.10;0.10;;;13.10;99.90;;;;;;5034515;28;20048;-76
2023/05/30 07:23:34;;;;;;;0.20;0.20;;;13.10;99.90;;;;;;5033659;28;20517;-76
2023/05/30 07:26:00;;;;;;;0.10;0.10;;;13.10;99.90;;;;;;5034664;28;20026;-75
2023/05/30 07:28:25;;;;;;;0.17;0.17;;;12.90;99.90;;;;;;5034638;28;20058;-75
2023/05/30 07:30:51;;;;;;;0.20;0.20;;;12.90;99.90;;;;;;5034458;28;20391;-75
2023/05/30 07:33:16;;;;;;;0.20;0.20;;;13.00;99.90;;;;;;5034721;28;20025;-75
2023/05/30 07:35:42;;;;;;;0.20;0.20;;;13.00;99.90;;;;;;5034454;28;20055;-76
2023/05/30 07:38:07;;;;;;;0.10;0.10;;;13.10;99.90;;;;;;5034509;28;20025;-75
2023/05/30 07:40:33;;;;;;;0.20;0.20;;;13.00;99.90;;;;;;5034376;28;20104;-75
2023/05/30 07:42:58;;;;;;;0.10;0.10;;;13.00;99.90;;;;;;5034558;28;20056;-75
2023/05/30 07:45:24;;;;;;;0.20;0.20;;;13.10;99.90;;;;;;5032878;28;20064;-75
2023/05/30 07:47:49;;;;;;;0.10;0.10;;;13.20;99.90;;;;;;5034741;28;20033;-75
2023/05/30 07:50:15;;;;;;;0.10;0.10;;;13.30;99.90;;;;;;5034456;28;20033;-75
2023/05/30 07:52:40;;;;;;;0.20;0.20;;;13.30;99.90;;;;;;5033977;28;20459;-75
2023/05/30 07:55:06;;;;;;;0.20;0.20;;;13.50;99.90;;;;;;5032638;28;20083;-75
2023/05/30 07:57:32;;;;;;;0.15;0.15;;;13.70;99.90;;;;;;5034003;28;20017;-75
2023/05/30 07:59:58;;;;;;;0.17;0.17;;;14.00;99.90;;;;;;5032461;28;20399;-75
2023/05/30 08:02:25;;;;;;;0.20;0.20;;;14.00;99.90;;;;;;5034156;28;20033;-75
2023/05/30 08:04:52;;;;;;;0.20;0.20;;;14.20;99.90;;;;;;5033825;28;20057;-75
2023/05/30 08:07:18;;;;;;;0.10;0.10;;;14.40;99.90;;;;;;5033791;28;20024;-76
2023/05/30 08:09:43;;;;;;;0.10;0.10;;;14.60;99.90;;;;;;5033743;28;20067;-75
2023/05/30 08:12:16;;;;;;;0.20;0.20;;;14.70;99.90;;;;;;5033241;28;20025;-75
2023/05/30 08:14:42;;;;;;;0.10;0.10;;;14.80;99.90;;;;;;5033743;28;20022;-75
2023/05/30 08:17:07;;;;;;;0.20;0.20;;;14.80;99.90;;;;;;5033747;28;20026;-75
2023/05/30 08:19:33;;;;;;;0.15;0.15;;;14.90;99.90;;;;;;5033762;28;20096;-76
2023/05/30 08:21:58;;;;;;;0.10;0.10;;;14.70;99.90;;;;;;5033321;28;20060;-75
2023/05/30 08:24:26;;;;;;;0.10;0.10;;;14.70;99.90;;;;;;5033535;28;20100;-75
2023/05/30 08:26:53;;;;;;;0.10;0.10;;;14.70;99.90;;;;;;5033446;28;20494;-75
2023/05/30 08:29:18;;;;;;;0.20;0.20;;;14.60;99.90;;;;;;5033942;28;20025;-75
2023/05/30 08:31:44;;;;;;;0.10;0.10;;;14.50;99.90;;;;;;5033756;28;20029;-75
2023/05/30 08:34:10;;;;;;;0.20;0.20;;;14.60;99.90;;;;;;5033435;28;20041;-76
2023/05/30 08:36:36;;;;;;;0.20;0.20;;;14.60;99.90;;;;;;5033442;28;20104;-75
2023/05/30 08:39:02;;;;;;;0.20;0.20;;;14.60;99.90;;;;;;5033265;28;20457;-77
2023/05/30 08:41:27;;;;;;;0.10;0.10;;;14.70;99.90;;;;;;5033365;28;20035;-76
2023/05/30 08:43:53;;;;;;;0.10;0.10;;;14.60;99.90;;;;;;5033202;28;20114;-77
2023/05/30 08:46:19;;;;;;;0.10;0.10;;;14.70;99.90;;;;;;5032902;28;20044;-76
2023/05/30 08:48:45;;;;;;;0.10;0.10;;;14.60;99.90;;;;;;5033265;28;20051;-76
2023/05/30 08:51:13;;;;;;;0.13;0.13;;;14.60;99.90;;;;;;5011924;28;20084;-76
2023/05/30 08:53:45;;;;;;;0.20;0.20;;;14.60;99.90;;;;;;5013269;28;20113;-77
2023/05/30 08:56:15;;;;;;;0.17;0.17;;;14.70;99.90;;;;;;5013529;28;20022;-76
2023/05/30 08:58:43;;;;;;;0.17;0.17;;;14.70;99.90;;;;;;5027090;28;20021;-77
2023/05/30 09:01:10;;;;;;;0.17;0.17;;;14.70;99.90;;;;;;5032942;28;20071;-77
2023/05/30 09:03:37;;;;;;;0.20;0.20;;;14.80;99.90;;;;;;5033029;28;20033;-77
2023/05/30 09:06:04;;;;;;;0.20;0.20;;;14.90;99.90;;;;;;5033009;28;20068;-77
2023/05/30 09:08:30;;;;;;;0.20;0.20;;;14.90;99.90;;;;;;5032505;28;20111;-77
2023/05/30 09:10:58;;;;;;;0.10;0.10;;;14.90;99.90;;;;;;5033049;28;20029;-77
2023/05/30 09:13:23;;;;;;;0.20;0.20;;;15.00;99.90;;;;;;5032649;28;20034;-77
2023/05/30 09:15:49;;;;;;;0.20;0.20;;;15.00;99.90;;;;;;5032792;28;20033;-77
2023/05/30 09:18:16;;;;;;;0.20;0.20;;;15.00;99.90;;;;;;5032846;28;20026;-77
2023/05/30 09:20:42;;;;;;;0.10;0.10;;;15.00;99.90;;;;;;5031057;28;20021;-77
2023/05/30 09:23:08;;;;;;;0.10;0.10;;;15.00;99.90;;;;;;5032712;28;20025;-77
2023/05/30 09:25:41;;;;;;;0.10;0.10;;;15.20;99.90;;;;;;5036820;28;20032;-77
2023/05/30 09:28:07;;;;;;;0.20;0.20;;;15.30;99.90;;;;;;5036797;28;20037;-77
2023/05/30 09:30:33;;;;;;;0.13;0.13;;;15.30;99.90;;;;;;5036888;28;20030;-77
2023/05/30 09:33:05;;;;;;;0.20;0.20;;;15.30;99.90;;;;;;5036774;28;20034;-77
2023/05/30 09:35:30;;;;;;;0.20;0.20;;;15.40;99.90;;;;;;5036331;28;20032;-77
2023/05/30 09:38:02;;;;;;;0.10;0.10;;;15.70;99.90;;;;;;5036969;28;20025;-77
2023/05/30 09:40:30;;;;;;;0.20;0.20;;;15.70;99.90;;;;;;5036652;28;20033;-77
2023/05/30 09:42:55;;;;;;;0.13;0.13;;;15.70;99.90;;;;;;5036342;28;20032;-77
2023/05/30 09:45:23;;;;;;;0.20;0.20;;;15.80;99.90;;;;;;5036399;28;20026;-77
2023/05/30 09:47:51;;;;;;;0.10;0.10;;;15.90;99.90;;;;;;5035461;28;20060;-77
2023/05/30 09:50:18;;;;;;;0.20;0.20;;;16.10;99.90;;;;;;5036549;28;20033;-77
2023/05/30 09:52:45;;;;;;;0.20;0.20;;;16.20;99.90;;;;;;5036702;28;20022;-77
2023/05/30 09:55:14;;;;;;;0.20;0.20;;;16.10;99.90;;;;;;5035220;28;20028;-77
2023/05/30 09:57:44;;;;;;;0.15;0.15;;;16.00;99.90;;;;;;5036580;28;20021;-77
2023/05/30 10:00:13;;;;;;;0.10;0.10;;;16.20;99.90;;;;;;5037072;28;20109;-77
2023/05/30 10:02:44;;;;;;;0.20;0.20;;;16.30;99.90;;;;;;5036483;28;20021;-77
2023/05/30 10:05:28;;;;;;;0.20;0.20;;;16.70;99.90;;;;;;5036334;28;20035;-77
2023/05/30 10:07:55;;;;;;;0.20;0.20;;;16.80;99.90;;;;;;5037011;28;20036;-77
2023/05/30 10:10:22;;;;;;;0.10;0.10;;;17.20;99.90;;;;;;5035018;28;20029;-77
2023/05/30 10:12:52;;;;;;;0.10;0.10;;;17.50;99.90;;;;;;5035035;28;20017;-77
2023/05/30 10:15:19;;;;;;;0.10;0.10;;;17.70;99.90;;;;;;5036288;28;20018;-77
2023/05/30 10:17:53;;;;;;;0.10;0.10;;;17.60;99.90;;;;;;5036215;28;20437;-77
2023/05/30 10:20:23;;;;;;;0.10;0.10;;;17.40;99.90;;;;;;5036169;28;20029;-77
2023/05/30 10:22:52;;;;;;;0.20;0.20;;;17.30;99.90;;;;;;5036058;28;20108;-77
2023/05/30 10:25:19;;;;;;;0.20;0.20;;;17.00;99.90;;;;;;5036286;28;20021;-77
2023/05/30 10:27:51;;;;;;;0.10;0.10;;;17.00;99.90;;;;;;5034859;28;20029;-77
2023/05/30 10:30:23;;;;;;;0.10;0.10;;;17.30;99.90;;;;;;5035990;28;20104;-77
2023/05/30 10:33:12;;;;;;;0.10;0.10;;;17.90;99.90;;;;;;5036109;28;20048;-77
2023/05/30 10:35:37;;;;;;;0.10;0.10;;;18.60;99.90;;;;;;5035433;28;20039;-77
2023/05/30 10:38:11;;;;;;;0.10;0.10;;;19.50;99.90;;;;;;5035814;28;20025;-77
2023/05/30 10:41:26;;;;;;;0.20;0.20;;;20.30;99.90;;;;;;5036166;28;20018;-77
2023/05/30 10:44:18;;;;;;;0.10;0.10;;;21.10;99.90;;;;;;4975207;28;20034;-77
2023/05/30 10:46:55;;;;;;;0.10;0.10;;;21.30;99.90;;;;;;5036164;28;20025;-76
2023/05/30 10:49:25;;;;;;;0.10;0.10;;;21.30;99.90;;;;;;5035751;28;20383;-77
2023/05/30 10:52:05;;;;;;;0.10;0.10;;;20.70;99.90;;;;;;5035549;28;20029;-77
2023/05/30 10:54:33;;;;;;;0.10;0.10;;;21.50;99.90;;;;;;5035468;28;20057;-77
2023/05/30 10:57:14;;;;;;;0.03;0.03;;;21.70;99.90;;;;;;5035444;28;20029;-77
2023/05/30 10:59:39;;;;;;;0.10;0.10;;;21.30;99.90;;;;;;5034348;28;20026;-77
2023/05/30 11:02:06;;;;;;;0.10;0.10;;;20.80;99.90;;;;;;5035295;28;20032;-77
2023/05/30 11:04:38;;;;;;;0.10;0.10;;;20.50;99.90;;;;;;5035274;28;20033;-77
2023/05/30 11:07:05;;;;;;;0.10;0.10;;;20.90;99.90;;;;;;5035413;28;20022;-77
2023/05/30 11:09:31;;;;;;;0.00;0.00;;;21.70;99.90;;;;;;5035919;28;20028;-77
2023/05/30 11:11:59;;;;;;;0.00;0.00;;;22.10;99.90;;;;;;5035450;28;20386;-77
2023/05/30 11:14:33;;;;;;;0.00;0.00;;;22.50;99.90;;;;;;5035399;28;20033;-77
2023/05/30 11:17:06;;;;;;;0.10;0.10;;;22.70;99.90;;;;;;5023364;28;20491;-77
2023/05/30 11:19:44;;;;;;;0.00;0.00;;;22.90;99.90;;;;;;5018948;28;20045;-77
2023/05/30 11:22:13;;;;;;;0.00;0.00;;;23.00;99.90;;;;;;5022554;28;20029;-76
2023/05/30 11:24:43;;;;;;;0.00;0.00;;;22.90;99.90;;;;;;5035682;28;20028;-76
2023/05/30 11:27:14;;;;;;;0.00;0.00;;;23.10;99.90;;;;;;5035874;28;20029;-76
2023/05/30 11:29:47;;;;;;;0.00;0.00;;;23.10;99.90;;;;;;5035272;28;20032;-76
2023/05/30 11:32:17;;;;;;;0.00;0.00;;;23.10;99.90;;;;;;5035327;28;20391;-78
2023/05/30 11:34:43;;;;;;;0.00;0.00;;;23.00;99.90;;;;;;5035328;28;20043;-77
2023/05/30 11:37:09;;;;;;;0.00;0.00;;;23.10;99.90;;;;;;5035256;28;20073;-77
2023/05/30 11:39:35;;;;;;;0.00;0.00;;;23.40;99.90;;;;;;5037609;28;20037;-77
2023/05/30 11:42:02;;;;;;;0.00;0.00;;;23.70;99.90;;;;;;5036632;28;20014;-76
2023/05/30 11:44:31;;;;;;;0.00;0.00;;;23.70;99.90;;;;;;5036419;28;20029;-75
2023/05/30 11:46:58;;;;;;;0.00;0.00;;;23.80;99.90;;;;;;5035068;28;20498;-76
2023/05/30 11:49:24;;;;;;;0.00;0.00;;;23.50;99.90;;;;;;5034615;28;20017;-77
2023/05/30 11:51:49;;;;;;;0.00;0.00;;;22.80;99.90;;;;;;5034502;28;20029;-77
2023/05/30 11:54:15;;;;;;;0.00;0.00;;;22.00;99.90;;;;;;5034432;28;20026;-77
2023/05/30 11:56:40;;;;;;;0.10;0.10;;;21.40;99.90;;;;;;5034596;28;20107;-76
2023/05/30 11:59:07;;;;;;;0.00;0.00;;;21.30;99.90;;;;;;5034290;28;20060;-77
2023/05/30 12:01:33;;;;;;;0.10;0.10;;;21.20;99.90;;;;;;5034508;28;20025;-77
2023/05/30 12:03:59;;;;;;;0.10;0.10;;;21.50;99.90;;;;;;5034548;28;20117;-76
2023/05/30 12:06:24;;;;;;;0.00;0.00;;;21.70;99.90;;;;;;5032938;28;20040;-77
2023/05/30 12:08:50;;;;;;;0.10;0.10;;;21.10;99.90;;;;;;5033975;28;20527;-77
2023/05/30 12:11:16;;;;;;;0.00;0.00;;;20.90;99.90;;;;;;5034261;28;20530;-77
2023/05/30 12:13:42;;;;;;;0.10;0.10;;;20.70;99.90;;;;;;5034031;28;20391;-77
2023/05/30 12:16:10;;;;;;;0.10;0.10;;;20.30;99.90;;;;;;5045620;28;20394;-78
2023/05/30 12:18:36;;;;;;;0.10;0.10;;;20.10;99.90;;;;;;5052131;28;20018;-77
2023/05/30 12:21:02;;;;;;;0.00;0.00;;;20.40;99.90;;;;;;5049983;28;20089;-79
2023/05/30 12:23:28;;;;;;;0.00;0.00;;;21.70;99.90;;;;;;5050925;28;20029;-79
2023/05/30 12:25:55;;;;;;;0.00;0.00;;;22.30;99.90;;;;;;5048551;28;20025;-78
2023/05/30 12:28:21;;;;;;;0.00;0.00;;;22.40;99.90;;;;;;5047969;28;20033;-79
2023/05/30 12:30:50;;;;;;;0.10;0.10;;;22.30;99.90;;;;;;5050583;28;20498;-78
2023/05/30 12:33:21;;;;;;;0.00;0.00;;;21.50;99.90;;;;;;5049298;28;20120;-78
2023/05/30 12:35:52;;;;;;;0.08;0.08;;;21.20;99.90;;;;;;5049078;28;20028;-79
2023/05/30 12:38:21;;;;;;;0.00;0.00;;;21.10;99.90;;;;;;5046536;28;20029;-78
2023/05/30 12:40:50;;;;;;;0.10;0.10;;;21.90;99.90;;;;;;5049949;28;20045;-79
2023/05/30 12:43:24;;;;;;;0.10;0.10;;;23.20;99.90;;;;;;5048698;28;20031;-78
2023/05/30 12:45:50;;;;;;;0.10;0.10;;;24.30;99.90;;;;;;5046401;28;20067;-79
2023/05/30 12:48:15;;;;;;;0.00;0.00;;;25.30;99.90;;;;;;5048849;28;20025;-78